LIRN/NAP METAR and TAF weather

Enter ICAO airport designator
Station Type Date Time Source
LIRN METAR 2020/07/15 05:50 UTC NOAA

LIRN 150550Z 09003KT 050V160 9999 FEW040 23/16 Q1014 NOSIG


Station Type Date Time Source
LIRN Decoded METAR 2020/07/15 05:50 UTC NOAA

Napoli / Capodichino, Italy (LIRN) 40-51N 014-18E 72M
Jul 15, 2020 - 01:50 AM EDT / 2020.07.15 0550 UTC
Wind: from the E (090 degrees) at 3 MPH (3 KT) (direction variable):0
Visibility: greater than 7 mile(s):0
Sky conditions: mostly clear
Temperature: 73 F (23 C)
Dew Point: 60 F (16 C)
Relative Humidity: 64%
Pressure (altimeter): 29.94 in. Hg (1014 hPa)
ob: LIRN 150550Z 09003KT 050V160 9999 FEW040 23/16 Q1014 NOSIG
cycle: 6

Station Type Date Time Source
LIRN TAF 2020/07/15 06:22 UTC NOAA

TAF LIRN 150500Z 1506/1606 VRB05KT 9999 SCT040
BECMG 1509/1511 22012KT
BECMG 1517/1519 VRB05KT

Example: see airport list